Time;durP1;ratioP1;P1;durP2;ratioP2;P2;SDS_P1;SDS_P2;PMS_P1;PMS_P2;Temp;Humidity;BMP_temperature;BMP_pressure;BME280_temperature;BME280_humidity;BME280_pressure;Samples;Min_cycle;Max_cycle;Signal;HPM_P1;HPM_P2
2022/01/11 00:01:55;;;;;;;;;33.25;32.00;;;;;-142.59;100.00;56100.38;4914074;28;50090;-69
2022/01/11 00:04:21;;;;;;;;;32.50;30.00;;;;;-142.59;100.00;56100.38;4914414;28;49831;-69
2022/01/11 00:06:49;;;;;;;;;19.25;17.50;;;;;-142.59;100.00;56100.38;4896910;28;51449;-70
2022/01/11 00:09:39;;;;;;;;;39.75;29.50;;;;;-142.59;100.00;56100.38;4917883;28;49787;-69
2022/01/11 00:12:08;;;;;;;;;36.75;34.00;;;;;-142.59;100.00;56100.38;4913841;28;49661;-69
2022/01/11 00:14:33;;;;;;;;;37.00;28.50;;;;;-142.59;100.00;56100.38;4914029;28;50244;-69
2022/01/11 00:16:59;;;;;;;;;27.25;27.00;;;;;-142.59;100.00;56100.38;4916436;28;50845;-69
2022/01/11 00:19:25;;;;;;;;;28.75;27.00;;;;;-142.59;100.00;56100.38;4914060;28;49739;-69
2022/01/11 00:21:51;;;;;;;;;26.75;21.25;;;;;-142.59;100.00;56100.38;4914137;28;49804;-69
2022/01/11 00:24:33;;;;;;;;;33.50;27.50;;;;;-142.59;100.00;56100.38;4917097;28;49784;-69
2022/01/11 00:27:00;;;;;;;;;27.75;26.50;;;;;-142.59;100.00;56100.38;4913315;28;49956;-69
2022/01/11 00:29:26;;;;;;;;;34.50;30.50;;;;;-142.59;100.00;56100.38;4913808;28;49780;-69
2022/01/11 00:31:52;;;;;;;;;30.00;26.25;;;;;-142.59;100.00;56100.38;4913718;28;49907;-69
2022/01/11 00:34:19;;;;;;;;;30.25;23.00;;;;;-142.59;100.00;56100.38;4913997;28;49780;-69
2022/01/11 00:36:45;;;;;;;;;33.00;28.25;;;;;-142.59;100.00;56100.38;4913405;28;50196;-69
2022/01/11 00:39:12;;;;;;;;;36.00;30.00;;;;;-142.59;100.00;56100.38;4913587;28;49620;-69
2022/01/11 00:41:39;;;;;;;;;33.25;31.00;;;;;-142.59;100.00;56100.38;4913958;28;49797;-69
2022/01/11 00:44:06;;;;;;;;;33.00;28.00;;;;;-142.59;100.00;56100.38;4913574;28;49941;-68
2022/01/11 00:46:31;;;;;;;;;41.50;33.50;;;;;-142.59;100.00;56100.38;4913468;28;50894;-69
2022/01/11 00:48:57;;;;;;;;;33.00;31.00;;;;;-142.59;100.00;56100.38;4913469;28;49719;-69
2022/01/11 00:51:22;;;;;;;;;36.75;32.75;;;;;-142.59;100.00;56100.38;4913655;28;50249;-69
2022/01/11 00:53:48;;;;;;;;;33.75;31.75;;;;;-142.59;100.00;56100.38;4913696;28;50015;-69
2022/01/11 00:56:13;;;;;;;;;40.75;31.75;;;;;-142.59;100.00;56100.38;4913181;28;49898;-69
2022/01/11 00:58:38;;;;;;;;;31.75;31.75;;;;;-142.59;100.00;56100.38;4912968;28;49691;-70
2022/01/11 01:01:04;;;;;;;;;42.50;37.75;;;;;-142.59;100.00;56100.38;4913367;28;50041;-68
2022/01/11 01:03:30;;;;;;;;;35.25;30.25;;;;;-142.59;100.00;56100.38;4916412;28;49620;-69
2022/01/11 01:05:55;;;;;;;;;32.50;31.50;;;;;-142.59;100.00;56100.38;4913130;28;49665;-69
2022/01/11 01:08:24;;;;;;;;;37.00;31.00;;;;;-142.59;100.00;56100.38;4912433;28;49939;-69
2022/01/11 01:10:50;;;;;;;;;39.75;38.00;;;;;-142.59;100.00;56100.38;4913260;28;49707;-69
2022/01/11 01:13:25;;;;;;;;;34.50;29.75;;;;;-142.59;100.00;56100.38;4912972;28;49731;-69
2022/01/11 01:15:53;;;;;;;;;35.50;29.25;;;;;-142.59;100.00;56100.38;4894758;28;51175;-69
2022/01/11 01:18:22;;;;;;;;;30.25;26.50;;;;;-142.59;100.00;56100.38;4914960;28;49760;-69
2022/01/11 01:20:48;;;;;;;;;42.50;31.50;;;;;-142.59;100.00;56100.38;4914067;28;49915;-69
2022/01/11 01:23:14;;;;;;;;;29.25;26.75;;;;;-142.59;100.00;56100.38;4917848;28;50121;-69
2022/01/11 01:25:44;;;;;;;;;30.00;27.25;;;;;-142.59;100.00;56100.38;4914844;28;49879;-69
2022/01/11 01:28:11;;;;;;;;;37.00;29.50;;;;;-142.59;100.00;56100.38;4916527;28;49690;-69
2022/01/11 01:30:38;;;;;;;;;40.00;28.50;;;;;-142.59;100.00;56100.38;4914013;28;49992;-69
2022/01/11 01:33:04;;;;;;;;;31.25;28.50;;;;;-142.59;100.00;56100.38;4916531;28;49535;-69
2022/01/11 01:35:33;;;;;;;;;27.25;25.75;;;;;-142.59;100.00;56100.38;4899456;28;50838;-69
2022/01/11 01:37:59;;;;;;;;;39.50;34.25;;;;;-142.59;100.00;56100.38;4914959;28;49776;-69
2022/01/11 01:40:24;;;;;;;;;35.25;30.00;;;;;-142.59;100.00;56100.38;4918225;28;49559;-69
2022/01/11 01:42:51;;;;;;;;;40.50;32.50;;;;;-142.59;100.00;56100.38;4913154;28;49790;-69
2022/01/11 01:45:19;;;;;;;;;31.50;30.00;;;;;-142.59;100.00;56100.38;4916461;28;49962;-69
2022/01/11 01:47:44;;;;;;;;;38.25;30.50;;;;;-142.59;100.00;56100.38;4912916;28;49735;-69
2022/01/11 01:50:10;;;;;;;;;28.50;26.25;;;;;-142.59;100.00;56100.38;4912835;28;49893;-70
2022/01/11 01:52:36;;;;;;;;;33.75;28.50;;;;;-142.59;100.00;56100.38;4913065;28;49885;-69
2022/01/11 01:55:02;;;;;;;;;31.00;30.00;;;;;-142.59;100.00;56100.38;4915073;28;52038;-69
2022/01/11 01:57:28;;;;;;;;;34.00;30.00;;;;;-142.59;100.00;56100.38;4915052;28;49744;-68
2022/01/11 01:59:53;;;;;;;;;33.50;30.00;;;;;-142.59;100.00;56100.38;4912479;28;49955;-69
2022/01/11 02:02:19;;;;;;;;;31.75;30.25;;;;;-142.59;100.00;56100.38;4915275;28;49672;-69
2022/01/11 02:04:47;;;;;;;;;34.00;29.25;;;;;-142.59;100.00;56100.38;4915218;28;50713;-69
2022/01/11 02:07:12;;;;;;;;;37.50;33.25;;;;;-142.59;100.00;56100.38;4912544;28;50450;-69
2022/01/11 02:09:38;;;;;;;;;39.00;30.00;;;;;-142.59;100.00;56100.38;4912589;28;49796;-69
2022/01/11 02:12:04;;;;;;;;;38.00;35.00;;;;;-142.59;100.00;56100.38;4912658;28;49730;-68
2022/01/11 02:14:29;;;;;;;;;33.50;30.00;;;;;-142.59;100.00;56100.38;4912374;28;49864;-69
2022/01/11 02:16:56;;;;;;;;;37.75;31.25;;;;;-142.59;100.00;56100.38;4912456;28;49760;-69
2022/01/11 02:19:22;;;;;;;;;32.25;26.50;;;;;-142.59;100.00;56100.38;4913695;28;49836;-69
2022/01/11 02:21:47;;;;;;;;;45.50;37.50;;;;;-142.59;100.00;56100.38;4898743;28;49770;-70
2022/01/11 02:24:13;;;;;;;;;41.75;33.75;;;;;-142.59;100.00;56100.38;4915769;28;50458;-69
2022/01/11 02:26:38;;;;;;;;;43.00;38.50;;;;;-142.59;100.00;56100.38;4918294;28;49645;-68
2022/01/11 02:29:04;;;;;;;;;40.25;36.25;;;;;-142.59;100.00;56100.38;4915573;28;49820;-68
2022/01/11 02:31:29;;;;;;;;;41.75;34.50;;;;;-142.59;100.00;56100.38;4915814;28;50026;-69
2022/01/11 02:33:58;;;;;;;;;27.00;24.50;;;;;-142.59;100.00;56100.38;4898213;28;50459;-69
2022/01/11 02:36:30;;;;;;;;;44.25;35.75;;;;;-142.59;100.00;56100.38;4915598;28;49718;-68
2022/01/11 02:38:56;;;;;;;;;43.50;38.25;;;;;-142.59;100.00;56100.38;4915649;28;49722;-68
2022/01/11 02:41:25;;;;;;;;;46.25;37.50;;;;;-142.59;100.00;56100.38;4915600;28;49679;-68
2022/01/11 02:43:51;;;;;;;;;36.00;33.25;;;;;-142.59;100.00;56100.38;4897714;28;50682;-68
2022/01/11 02:46:21;;;;;;;;;56.75;45.75;;;;;-142.59;100.00;56100.38;4915316;28;49751;-69
2022/01/11 02:48:48;;;;;;;;;41.50;35.25;;;;;-142.59;100.00;56100.38;4915399;28;49673;-69
2022/01/11 02:51:13;;;;;;;;;45.75;38.75;;;;;-142.59;100.00;56100.38;4915585;28;49931;-69
2022/01/11 02:53:41;;;;;;;;;35.50;29.00;;;;;-142.59;100.00;56100.38;4915120;28;50597;-69
2022/01/11 02:56:08;;;;;;;;;45.50;40.75;;;;;-142.59;100.00;56100.38;4918127;28;49713;-68
2022/01/11 02:58:33;;;;;;;;;50.50;40.25;;;;;-142.59;100.00;56100.38;4914844;28;49899;-68
2022/01/11 03:00:58;;;;;;;;;33.75;30.00;;;;;-142.59;100.00;56100.38;4917751;28;50016;-68
2022/01/11 03:03:25;;;;;;;;;46.00;38.50;;;;;-142.59;100.00;56100.38;4900397;28;50538;-69
2022/01/11 03:06:00;;;;;;;;;41.25;37.75;;;;;-142.59;100.00;56100.38;4916731;28;49793;-69
2022/01/11 03:08:29;;;;;;;;;40.50;37.75;;;;;-142.59;100.00;56100.38;4915138;28;49714;-68
2022/01/11 03:10:55;;;;;;;;;46.00;38.25;;;;;-142.59;100.00;56100.38;4917451;28;49913;-69
2022/01/11 03:13:21;;;;;;;;;44.50;35.00;;;;;-142.59;100.00;56100.38;4914399;28;50973;-69
2022/01/11 03:15:48;;;;;;;;;43.50;37.00;;;;;-142.59;100.00;56100.38;4900495;28;49725;-69
2022/01/11 03:18:14;;;;;;;;;43.25;39.25;;;;;-142.59;100.00;56100.38;4914927;28;49721;-69
2022/01/11 03:20:43;;;;;;;;;42.75;36.50;;;;;-142.59;100.00;56100.38;4917797;28;49810;-68
2022/01/11 03:23:08;;;;;;;;;45.75;41.00;;;;;-142.59;100.00;56100.38;4914560;28;50738;-68
2022/01/11 03:25:35;;;;;;;;;43.50;39.00;;;;;-142.59;100.00;56100.38;4914865;28;49804;-68
2022/01/11 03:28:02;;;;;;;;;46.50;42.25;;;;;-142.59;100.00;56100.38;4914492;28;49647;-69
2022/01/11 03:30:27;;;;;;;;;34.75;34.25;;;;;-142.59;100.00;56100.38;4914347;28;49875;-69
2022/01/11 03:32:53;;;;;;;;;54.25;41.50;;;;;-142.59;100.00;56100.38;4897197;28;50826;-68
2022/01/11 03:35:19;;;;;;;;;46.25;41.00;;;;;-142.59;100.00;56100.38;4916626;28;49816;-68
2022/01/11 03:37:46;;;;;;;;;40.50;37.25;;;;;-142.59;100.00;56100.38;4918584;28;49782;-69
2022/01/11 03:40:15;;;;;;;;;39.75;30.25;;;;;-142.59;100.00;56100.38;4899184;28;50029;-68
2022/01/11 03:42:41;;;;;;;;;49.50;35.00;;;;;-142.59;100.00;56100.38;4913753;28;51064;-69
2022/01/11 03:45:08;;;;;;;;;37.25;33.00;;;;;-142.59;100.00;56100.38;4913969;28;49813;-69
2022/01/11 03:47:35;;;;;;;;;40.50;38.75;;;;;-142.59;100.00;56100.38;4896930;28;49717;-68
2022/01/11 03:50:00;;;;;;;;;38.25;30.50;;;;;-142.59;100.00;56100.38;4914169;28;50195;-69
2022/01/11 03:52:26;;;;;;;;;46.50;39.00;;;;;-142.59;100.00;56100.38;4913784;28;50928;-68
2022/01/11 03:57:17;;;;;;;;;38.75;36.25;;;;;-142.59;100.00;56100.38;4914016;28;49826;-68
2022/01/11 03:59:43;;;;;;;;;37.50;31.75;;;;;-142.59;100.00;56100.38;4913803;28;49999;-69
2022/01/11 04:02:09;;;;;;;;;40.25;36.00;;;;;-142.59;100.00;56100.38;4913757;28;50617;-69
2022/01/11 04:04:34;;;;;;;;;42.00;36.75;;;;;-142.59;100.00;56100.38;4918146;28;50152;-69
2022/01/11 04:07:00;;;;;;;;;38.25;33.00;;;;;-142.59;100.00;56100.38;4913728;28;50251;-69
2022/01/11 04:09:26;;;;;;;;;39.75;30.75;;;;;-142.59;100.00;56100.38;4913850;28;49914;-69
2022/01/11 04:11:51;;;;;;;;;38.75;32.25;;;;;-142.59;100.00;56100.38;4913316;28;49717;-69
2022/01/11 04:14:16;;;;;;;;;38.25;34.00;;;;;-142.59;100.00;56100.38;4920178;28;49849;-69
2022/01/11 04:16:42;;;;;;;;;38.00;36.75;;;;;-142.59;100.00;56100.38;4917028;28;49612;-69
2022/01/11 04:19:07;;;;;;;;;41.00;32.75;;;;;-142.59;100.00;56100.38;4914116;28;49671;-69
2022/01/11 04:21:33;;;;;;;;;33.75;28.50;;;;;-142.59;100.00;56100.38;4898183;28;50392;-70
2022/01/11 04:23:58;;;;;;;;;35.25;27.75;;;;;-142.59;100.00;56100.38;4917807;28;49877;-69
2022/01/11 04:26:24;;;;;;;;;33.75;29.75;;;;;-142.59;100.00;56100.38;4914956;28;49882;-68
2022/01/11 04:28:49;;;;;;;;;43.25;38.25;;;;;-142.59;100.00;56100.38;4896312;28;50510;-69
2022/01/11 04:31:14;;;;;;;;;33.25;29.75;;;;;-142.59;100.00;56100.38;4913289;28;49829;-69
2022/01/11 04:33:43;;;;;;;;;31.50;26.75;;;;;-142.59;100.00;56100.38;4896159;28;49819;-68
2022/01/11 04:36:09;;;;;;;;;40.00;33.00;;;;;-142.59;100.00;56100.38;4913455;28;49909;-68
2022/01/11 04:38:35;;;;;;;;;34.00;29.00;;;;;-142.59;100.00;56100.38;4896194;28;50060;-68
2022/01/11 04:41:01;;;;;;;;;37.25;31.00;;;;;-142.59;100.00;56100.38;4895783;28;50720;-68
2022/01/11 04:43:27;;;;;;;;;39.50;33.75;;;;;-142.59;100.00;56100.38;4895452;28;49862;-68
2022/01/11 04:45:52;;;;;;;;;36.75;32.75;;;;;-142.59;100.00;56100.38;4896043;28;49834;-69
2022/01/11 04:48:20;;;;;;;;;33.00;31.50;;;;;-142.59;100.00;56100.38;4913463;28;49813;-68
2022/01/11 04:50:46;;;;;;;;;36.25;32.75;;;;;-142.59;100.00;56100.38;4895518;28;52890;-69
2022/01/11 04:53:11;;;;;;;;;28.00;27.50;;;;;-142.59;100.00;56100.38;4913009;28;49776;-69
2022/01/11 04:55:37;;;;;;;;;33.00;29.50;;;;;-142.59;100.00;56100.38;4916059;28;49850;-68
2022/01/11 04:58:03;;;;;;;;;34.00;30.75;;;;;-142.59;100.00;56100.38;4912852;28;49936;-68
2022/01/11 05:00:28;;;;;;;;;28.50;27.00;;;;;-142.59;100.00;56100.38;4914549;28;49937;-68
2022/01/11 05:02:58;;;;;;;;;40.75;31.25;;;;;-142.59;100.00;56100.38;4912875;28;49889;-69
2022/01/11 05:05:26;;;;;;;;;37.00;33.00;;;;;-142.59;100.00;56100.38;4916749;28;49763;-68
2022/01/11 05:07:52;;;;;;;;;36.00;30.75;;;;;-142.59;100.00;56100.38;4896800;28;49785;-69
2022/01/11 05:10:17;;;;;;;;;39.75;33.00;;;;;-142.59;100.00;56100.38;4918782;28;49730;-69
2022/01/11 05:12:43;;;;;;;;;33.50;29.75;;;;;-142.59;100.00;56100.38;4915495;28;49710;-69
2022/01/11 05:15:10;;;;;;;;;38.00;32.25;;;;;-142.59;100.00;56100.38;4912827;28;49951;-69
2022/01/11 05:17:37;;;;;;;;;26.75;21.75;;;;;-142.59;100.00;56100.38;4906751;28;49709;-68
2022/01/11 05:20:04;;;;;;;;;36.75;33.00;;;;;-142.59;100.00;56100.38;4897620;28;51691;-68
2022/01/11 05:22:29;;;;;;;;;38.25;34.50;;;;;-142.59;100.00;56100.38;4914234;28;49816;-69
2022/01/11 05:24:55;;;;;;;;;33.00;27.50;;;;;-142.59;100.00;56100.38;4912610;28;49740;-69
2022/01/11 05:27:20;;;;;;;;;33.75;31.50;;;;;-142.59;100.00;56100.38;4912606;28;49842;-69
2022/01/11 05:29:45;;;;;;;;;41.25;30.75;;;;;-142.59;100.00;56100.38;4912460;28;49744;-70
2022/01/11 05:32:11;;;;;;;;;46.75;35.50;;;;;-142.59;100.00;56100.38;4912582;28;49750;-70
2022/01/11 05:34:36;;;;;;;;;29.25;29.25;;;;;-142.59;100.00;56100.38;4912545;28;49716;-68
2022/01/11 05:37:03;;;;;;;;;50.25;33.25;;;;;-142.59;100.00;56100.38;4912688;28;49612;-68
2022/01/11 05:39:28;;;;;;;;;37.00;34.50;;;;;-142.59;100.00;56100.38;4895022;28;50568;-68
2022/01/11 05:41:56;;;;;;;;;38.25;34.50;;;;;-142.59;100.00;56100.38;4912340;28;49791;-68
2022/01/11 05:44:22;;;;;;;;;59.00;42.00;;;;;-142.59;100.00;56100.38;4912749;28;49717;-68
2022/01/11 05:46:48;;;;;;;;;46.25;39.25;;;;;-142.59;100.00;56100.38;4912384;28;50031;-69
2022/01/11 05:49:13;;;;;;;;;36.50;35.50;;;;;-142.59;100.00;56100.38;4912207;28;50892;-68
2022/01/11 05:51:39;;;;;;;;;33.25;26.50;;;;;-142.59;100.00;56100.38;4912363;28;49793;-70
2022/01/11 05:54:04;;;;;;;;;43.25;35.50;;;;;-142.59;100.00;56100.38;4916939;28;49966;-69
2022/01/11 05:56:29;;;;;;;;;42.25;36.50;;;;;-142.59;100.00;56100.38;4904994;28;49640;-69
2022/01/11 05:58:55;;;;;;;;;37.25;33.25;;;;;-142.59;100.00;56100.38;4906280;28;51505;-68
2022/01/11 06:01:23;;;;;;;;;39.75;34.50;;;;;-142.59;100.00;56100.38;4919696;28;49837;-68
2022/01/11 06:03:49;;;;;;;;;39.75;35.50;;;;;-142.59;100.00;56100.38;4915461;28;49897;-68
2022/01/11 06:06:14;;;;;;;;;37.75;35.50;;;;;-142.59;100.00;56100.38;4916375;28;49857;-70
2022/01/11 06:08:39;;;;;;;;;42.75;34.50;;;;;-142.59;100.00;56100.38;4919318;28;49882;-68
2022/01/11 06:11:06;;;;;;;;;39.25;33.50;;;;;-142.59;100.00;56100.38;4919073;28;49770;-68
2022/01/11 06:13:32;;;;;;;;;40.50;34.25;;;;;-142.59;100.00;56100.38;4915401;28;49930;-68
2022/01/11 06:15:57;;;;;;;;;35.25;31.00;;;;;-142.59;100.00;56100.38;4918264;28;50012;-68
2022/01/11 06:18:22;;;;;;;;;40.25;37.25;;;;;-142.59;100.00;56100.38;4905955;28;51435;-68
2022/01/11 06:20:48;;;;;;;;;44.75;40.25;;;;;-142.59;100.00;56100.38;4901832;28;49826;-68
2022/01/11 06:23:13;;;;;;;;;43.00;37.75;;;;;-142.59;100.00;56100.38;4902347;28;49971;-69
2022/01/11 06:25:38;;;;;;;;;50.00;36.25;;;;;-142.59;100.00;56100.38;4920869;28;49753;-68
2022/01/11 06:28:04;;;;;;;;;35.25;34.25;;;;;-142.59;100.00;56100.38;4918890;28;49802;-69
2022/01/11 06:30:29;;;;;;;;;38.25;34.50;;;;;-142.59;100.00;56100.38;4900248;28;49945;-68
2022/01/11 06:32:56;;;;;;;;;43.25;39.00;;;;;-142.59;100.00;56100.38;4921435;28;49531;-68
2022/01/11 06:35:22;;;;;;;;;45.75;38.00;;;;;-142.59;100.00;56100.38;4915898;28;49512;-64
2022/01/11 06:37:48;;;;;;;;;33.00;26.50;;;;;-142.59;100.00;56100.38;4914651;28;51046;-66
2022/01/11 06:40:17;;;;;;;;;48.75;40.50;;;;;-142.59;100.00;56100.38;4914783;28;49651;-76
2022/01/11 06:42:44;;;;;;;;;57.75;42.50;;;;;-142.59;100.00;56100.38;4914595;28;49657;-66
2022/01/11 06:45:11;;;;;;;;;40.50;35.50;;;;;-142.59;100.00;56100.38;4917225;28;50087;-63
2022/01/11 06:47:37;;;;;;;;;50.75;43.25;;;;;-142.59;100.00;56100.38;4914677;28;50050;-66
2022/01/11 06:50:03;;;;;;;;;57.00;40.50;;;;;-142.59;100.00;56100.38;4914484;28;49691;-67
2022/01/11 06:52:29;;;;;;;;;57.25;39.00;;;;;-142.59;100.00;56100.38;4914529;28;49732;-67
2022/01/11 06:54:54;;;;;;;;;52.00;43.50;;;;;-142.59;100.00;56100.38;4914994;28;49661;-68
2022/01/11 06:57:19;;;;;;;;;53.50;44.00;;;;;-142.59;100.00;56100.38;4914711;28;49928;-67
2022/01/11 06:59:45;;;;;;;;;46.50;41.25;;;;;-142.59;100.00;56100.38;4914444;28;49725;-68
2022/01/11 07:02:10;;;;;;;;;50.75;39.00;;;;;-142.59;100.00;56100.38;4897527;28;50061;-67
2022/01/11 07:04:37;;;;;;;;;46.75;40.25;;;;;-142.59;100.00;56100.38;4914749;28;49894;-68
2022/01/11 07:07:04;;;;;;;;;52.00;41.75;;;;;-142.59;100.00;56100.38;4913075;28;49760;-67
2022/01/11 07:09:29;;;;;;;;;50.25;40.25;;;;;-142.59;100.00;56100.38;4897271;28;50032;-69
2022/01/11 07:11:55;;;;;;;;;48.75;43.50;;;;;-142.59;100.00;56100.38;4900937;28;50261;-68
2022/01/11 07:14:20;;;;;;;;;46.75;40.50;;;;;-142.59;100.00;56100.38;4902348;28;50022;-68
2022/01/11 07:16:48;;;;;;;;;48.50;38.50;;;;;-142.59;100.00;56100.38;4919634;28;50639;-69
2022/01/11 07:19:17;;;;;;;;;44.75;38.50;;;;;-142.59;100.00;56100.38;4897111;28;49721;-69
2022/01/11 07:21:44;;;;;;;;;49.00;42.50;;;;;-142.59;100.00;56100.38;4914462;28;49808;-68
2022/01/11 07:24:11;;;;;;;;;53.00;43.25;;;;;-142.59;100.00;56100.38;4915213;28;50023;-68
2022/01/11 07:26:36;;;;;;;;;50.25;42.25;;;;;-142.59;100.00;56100.38;4928292;28;50722;-70
2022/01/11 07:29:03;;;;;;;;;50.50;43.00;;;;;-142.59;100.00;56100.38;4926947;28;49762;-68
2022/01/11 07:31:29;;;;;;;;;53.50;43.75;;;;;-142.59;100.00;56100.38;4914483;28;49579;-68
2022/01/11 07:33:54;;;;;;;;;44.75;38.00;;;;;-142.59;100.00;56100.38;4914400;28;49874;-67
2022/01/11 07:36:20;;;;;;;;;50.50;41.25;;;;;-142.59;100.00;56100.38;4913121;28;50142;-68
2022/01/11 07:38:45;;;;;;;;;50.25;42.50;;;;;-142.59;100.00;56100.38;4913986;28;49634;-74
2022/01/11 07:41:10;;;;;;;;;37.00;35.50;;;;;-142.59;100.00;56100.38;4913817;28;49959;-70
2022/01/11 07:43:36;;;;;;;;;45.75;41.25;;;;;-142.59;100.00;56100.38;4914021;28;49683;-69
2022/01/11 07:46:01;;;;;;;;;61.50;48.25;;;;;-142.59;100.00;56100.38;4896464;28;51593;-70
2022/01/11 07:48:27;;;;;;;;;43.25;40.50;;;;;-142.59;100.00;56100.38;4913989;28;49761;-70
2022/01/11 07:50:52;;;;;;;;;56.50;45.75;;;;;-142.59;100.00;56100.38;4913789;28;49786;-70
2022/01/11 07:53:18;;;;;;;;;47.75;43.75;;;;;-142.59;100.00;56100.38;4911871;28;49856;-69
2022/01/11 07:55:43;;;;;;;;;50.00;43.75;;;;;-142.59;100.00;56100.38;4913724;28;50567;-68
2022/01/11 07:58:08;;;;;;;;;44.75;39.00;;;;;-142.59;100.00;56100.38;4913522;28;49937;-70
2022/01/11 08:00:34;;;;;;;;;60.00;49.00;;;;;-142.59;100.00;56100.38;4913727;28;50015;-66
2022/01/11 08:02:59;;;;;;;;;57.75;46.25;;;;;-142.59;100.00;56100.38;4913997;28;49747;-69
2022/01/11 08:05:25;;;;;;;;;42.50;37.50;;;;;-142.59;100.00;56100.38;4913647;28;50572;-68
2022/01/11 08:07:50;;;;;;;;;54.75;43.50;;;;;-142.59;100.00;56100.38;4913661;28;49642;-69
2022/01/11 08:10:18;;;;;;;;;53.75;44.50;;;;;-142.59;100.00;56100.38;4913857;28;50373;-69
2022/01/11 08:12:44;;;;;;;;;59.75;48.75;;;;;-142.59;100.00;56100.38;4913620;28;49971;-71
2022/01/11 08:15:10;;;;;;;;;50.25;43.25;;;;;-142.59;100.00;56100.38;4913280;28;49901;-74
2022/01/11 08:17:35;;;;;;;;;62.50;44.75;;;;;-142.59;100.00;56100.38;4913212;28;49814;-68
2022/01/11 08:20:00;;;;;;;;;60.75;47.25;;;;;-142.59;100.00;56100.38;4913547;28;50337;-68
2022/01/11 08:22:26;;;;;;;;;46.25;41.25;;;;;-142.59;100.00;56100.38;4913756;28;49991;-69
2022/01/11 08:24:52;;;;;;;;;53.25;45.50;;;;;-142.59;100.00;56100.38;4912882;28;50324;-68
2022/01/11 08:27:19;;;;;;;;;56.25;46.50;;;;;-142.59;100.00;56100.38;4912951;28;49804;-68
2022/01/11 08:29:45;;;;;;;;;50.00;43.25;;;;;-142.59;100.00;56100.38;4913328;28;49821;-70
2022/01/11 08:32:11;;;;;;;;;58.50;45.50;;;;;-142.59;100.00;56100.38;4913440;28;49940;-70
2022/01/11 08:34:36;;;;;;;;;60.25;46.50;;;;;-142.59;100.00;56100.38;4912968;28;50751;-71
2022/01/11 08:37:02;;;;;;;;;57.75;45.50;;;;;-142.59;100.00;56100.38;4913123;28;50357;-70
2022/01/11 08:39:28;;;;;;;;;49.00;42.00;;;;;-142.59;100.00;56100.38;4913146;28;49810;-70
2022/01/11 08:41:54;;;;;;;;;52.25;45.00;;;;;-142.59;100.00;56100.38;4912060;28;49680;-70
2022/01/11 08:44:20;;;;;;;;;60.50;46.25;;;;;-142.59;100.00;56100.38;4915132;28;49800;-74
2022/01/11 08:46:46;;;;;;;;;59.50;47.75;;;;;-142.59;100.00;56100.38;4924274;28;49389;-72
2022/01/11 08:49:13;;;;;;;;;59.50;45.25;;;;;-142.59;100.00;56100.38;4921967;28;49849;-73
2022/01/11 08:51:38;;;;;;;;;57.50;44.75;;;;;-142.59;100.00;56100.38;4896593;28;50043;-74
2022/01/11 08:54:05;;;;;;;;;67.25;48.00;;;;;-142.59;100.00;56100.38;4912880;28;50658;-74
2022/01/11 08:56:31;;;;;;;;;53.00;45.00;;;;;-142.59;100.00;56100.38;4912283;28;49959;-73
2022/01/11 08:58:57;;;;;;;;;62.25;43.00;;;;;-142.59;100.00;56100.38;4916930;28;49755;-74
2022/01/11 09:01:23;;;;;;;;;51.75;43.75;;;;;-142.59;100.00;56100.38;4907640;28;49982;-73
2022/01/11 09:03:49;;;;;;;;;54.50;47.25;;;;;-142.59;100.00;56100.38;4903051;28;51716;-73
2022/01/11 09:06:14;;;;;;;;;56.75;47.00;;;;;-142.59;100.00;56100.38;4918858;28;49798;-75
2022/01/11 09:08:41;;;;;;;;;61.50;48.25;;;;;-142.59;100.00;56100.38;4919580;28;49728;-74
2022/01/11 09:11:06;;;;;;;;;59.50;46.25;;;;;-142.59;100.00;56100.38;4918914;28;49843;-74
2022/01/11 09:13:34;;;;;;;;;47.50;42.75;;;;;-142.59;100.00;56100.38;4913427;28;51010;-74
2022/01/11 09:16:00;;;;;;;;;62.75;49.50;;;;;-142.59;100.00;56100.38;4917848;28;49985;-75
2022/01/11 09:18:25;;;;;;;;;61.25;46.00;;;;;-142.59;100.00;56100.38;4912775;28;49617;-75
2022/01/11 09:20:50;;;;;;;;;72.00;57.50;;;;;-142.59;100.00;56100.38;4922677;28;49618;-75
2022/01/11 09:23:16;;;;;;;;;62.50;47.00;;;;;-142.59;100.00;56100.38;4917064;28;50386;-74
2022/01/11 09:25:41;;;;;;;;;60.50;47.50;;;;;-142.59;100.00;56100.38;4895371;28;49664;-76
2022/01/11 09:28:07;;;;;;;;;63.25;50.25;;;;;-142.59;100.00;56100.38;4923083;28;49732;-73
2022/01/11 09:30:33;;;;;;;;;62.25;48.00;;;;;-142.59;100.00;56100.38;4920917;28;49880;-76
2022/01/11 09:32:58;;;;;;;;;64.00;48.00;;;;;-142.59;100.00;56100.38;4917793;28;49956;-73
2022/01/11 09:35:23;;;;;;;;;56.00;48.00;;;;;-142.59;100.00;56100.38;4923076;28;49933;-74
2022/01/11 09:37:49;;;;;;;;;58.75;47.75;;;;;-142.59;100.00;56100.38;4904849;28;49657;-73
2022/01/11 09:40:16;;;;;;;;;65.25;50.50;;;;;-142.59;100.00;56100.38;4909114;28;50025;-74
2022/01/11 09:42:43;;;;;;;;;57.50;47.25;;;;;-142.59;100.00;56100.38;4922915;28;50964;-74
2022/01/11 09:45:10;;;;;;;;;73.00;55.25;;;;;-142.59;100.00;56100.38;4923915;28;49607;-73
2022/01/11 09:47:39;;;;;;;;;53.00;46.25;;;;;-142.59;100.00;56100.38;4915624;28;50085;-73
2022/01/11 09:50:07;;;;;;;;;60.25;47.50;;;;;-142.59;100.00;56100.38;4905199;28;50106;-73
2022/01/11 09:52:34;;;;;;;;;57.50;48.50;;;;;-142.59;100.00;56100.38;4926623;28;50750;-73
2022/01/11 09:55:00;;;;;;;;;50.50;43.50;;;;;-142.59;100.00;56100.38;4917394;28;49816;-75
2022/01/11 09:57:25;;;;;;;;;57.25;48.75;;;;;-142.59;100.00;56100.38;4920785;28;49845;-72
2022/01/11 09:59:51;;;;;;;;;66.75;49.75;;;;;-142.59;100.00;56100.38;4915016;28;49739;-72
2022/01/11 10:02:16;;;;;;;;;60.50;47.25;;;;;-142.59;100.00;56100.38;4920956;28;49922;-72
2022/01/11 10:04:42;;;;;;;;;61.00;47.00;;;;;-142.59;100.00;56100.38;4924792;28;49836;-74
2022/01/11 10:07:09;;;;;;;;;66.75;47.25;;;;;-142.59;100.00;56100.38;4924882;28;49892;-74
2022/01/11 10:09:49;;;;;;;;;58.00;48.75;;;;;-142.59;100.00;56100.38;4900992;28;49806;-74
2022/01/11 10:12:18;;;;;;;;;67.25;48.25;;;;;-142.59;100.00;56100.38;4922731;28;49826;-73
2022/01/11 10:14:49;;;;;;;;;60.25;49.00;;;;;-142.59;100.00;56100.38;4917804;28;49959;-76
2022/01/11 10:17:17;;;;;;;;;65.75;52.25;;;;;-142.59;100.00;56100.38;4922390;28;49547;-76
2022/01/11 10:20:04;;;;;;;;;66.25;48.25;;;;;-142.59;100.00;56100.38;4903160;28;49867;-73
2022/01/11 10:22:30;;;;;;;;;60.25;48.75;;;;;-142.59;100.00;56100.38;4915143;28;51210;-73
2022/01/11 10:24:57;;;;;;;;;67.75;52.00;;;;;-142.59;100.00;56100.38;4932731;28;49653;-74
2022/01/11 10:27:30;;;;;;;;;64.00;48.50;;;;;-142.59;100.00;56100.38;4911244;28;49669;-70
2022/01/11 10:29:58;;;;;;;;;65.00;49.25;;;;;-142.59;100.00;56100.38;4925455;28;49600;-70
2022/01/11 10:32:33;;;;;;;;;71.50;54.00;;;;;-142.59;100.00;56100.38;4927715;28;50418;-71
2022/01/11 10:35:10;;;;;;;;;77.75;55.25;;;;;-142.59;100.00;56100.38;4927406;28;49378;-73
2022/01/11 10:37:37;;;;;;;;;72.50;56.50;;;;;-142.59;100.00;56100.38;4904589;28;49976;-74
2022/01/11 10:40:09;;;;;;;;;70.75;55.00;;;;;-142.59;100.00;56100.38;4898552;28;49615;-72
2022/01/11 10:42:38;;;;;;;;;69.50;54.25;;;;;-142.59;100.00;56100.38;4912712;28;50835;-71
2022/01/11 10:45:11;;;;;;;;;56.00;48.50;;;;;-142.59;100.00;56100.38;4913800;28;49870;-73
2022/01/11 10:47:43;;;;;;;;;74.00;54.50;;;;;-142.59;100.00;56100.38;4917948;28;49573;-75
2022/01/11 10:50:11;;;;;;;;;69.00;54.00;;;;;-142.59;100.00;56100.38;4897753;29;49950;-73
2022/01/11 10:52:38;;;;;;;;;74.75;57.25;;;;;-142.59;100.00;56100.38;4914291;28;49785;-73
2022/01/11 10:55:05;;;;;;;;;69.75;50.50;;;;;-142.59;100.00;56100.38;4902371;28;49648;-71